sensor_id;sensor_type;location;lat;lon;timestamp;temperature;humidity
18384;DHT22;9318;48.644;9.456;2022-11-15T00:00:48;11.10;99.90
18384;DHT22;9318;48.644;9.456;2022-11-15T00:03:16;11.00;99.90
18384;DHT22;9318;48.644;9.456;2022-11-15T00:05:43;10.80;99.90
18384;DHT22;9318;48.644;9.456;2022-11-15T00:08:11;10.80;99.90
18384;DHT22;9318;48.644;9.456;2022-11-15T00:10:38;10.60;99.90
18384;DHT22;9318;48.644;9.456;2022-11-15T00:13:06;10.50;99.90
18384;DHT22;9318;48.644;9.456;2022-11-15T00:15:35;10.40;99.90
18384;DHT22;9318;48.644;9.456;2022-11-15T00:18:05;10.40;99.90
18384;DHT22;9318;48.644;9.456;2022-11-15T00:20:34;10.50;99.90
18384;DHT22;9318;48.644;9.456;2022-11-15T00:23:03;10.50;99.90
18384;DHT22;9318;48.644;9.456;2022-11-15T00:25:30;10.50;99.90
18384;DHT22;9318;48.644;9.456;2022-11-15T00:27:58;10.50;99.90
18384;DHT22;9318;48.644;9.456;2022-11-15T00:30:26;10.40;99.90
18384;DHT22;9318;48.644;9.456;2022-11-15T00:32:54;10.50;99.90
18384;DHT22;9318;48.644;9.456;2022-11-15T00:35:22;10.40;99.90
18384;DHT22;9318;48.644;9.456;2022-11-15T00:37:50;10.40;99.90
18384;DHT22;9318;48.644;9.456;2022-11-15T00:40:19;10.40;99.90
18384;DHT22;9318;48.644;9.456;2022-11-15T00:42:46;10.50;99.90
18384;DHT22;9318;48.644;9.456;2022-11-15T00:45:14;10.50;99.90
18384;DHT22;9318;48.644;9.456;2022-11-15T00:47:44;10.50;99.90
18384;DHT22;9318;48.644;9.456;2022-11-15T00:50:12;10.50;99.90
18384;DHT22;9318;48.644;9.456;2022-11-15T00:52:41;10.40;99.90
18384;DHT22;9318;48.644;9.456;2022-11-15T00:55:12;10.40;99.90
18384;DHT22;9318;48.644;9.456;2022-11-15T00:57:40;10.40;99.90
18384;DHT22;9318;48.644;9.456;2022-11-15T01:00:08;10.30;99.90
18384;DHT22;9318;48.644;9.456;2022-11-15T01:02:36;10.30;99.90
18384;DHT22;9318;48.644;9.456;2022-11-15T01:05:04;10.20;99.90
18384;DHT22;9318;48.644;9.456;2022-11-15T01:07:31;10.20;99.90
18384;DHT22;9318;48.644;9.456;2022-11-15T01:10:00;10.10;99.90
18384;DHT22;9318;48.644;9.456;2022-11-15T01:12:28;10.10;99.90
18384;DHT22;9318;48.644;9.456;2022-11-15T01:14:55;10.00;99.90
18384;DHT22;9318;48.644;9.456;2022-11-15T01:17:22;10.00;99.90
18384;DHT22;9318;48.644;9.456;2022-11-15T01:19:49;9.90;99.90
18384;DHT22;9318;48.644;9.456;2022-11-15T01:22:17;9.90;99.90
18384;DHT22;9318;48.644;9.456;2022-11-15T01:24:44;9.80;99.90
18384;DHT22;9318;48.644;9.456;2022-11-15T01:27:13;9.70;99.90
18384;DHT22;9318;48.644;9.456;2022-11-15T01:29:40;9.70;99.90
18384;DHT22;9318;48.644;9.456;2022-11-15T01:32:07;9.60;99.90
18384;DHT22;9318;48.644;9.456;2022-11-15T01:34:34;9.40;99.90
18384;DHT22;9318;48.644;9.456;2022-11-15T01:37:02;9.40;99.90
18384;DHT22;9318;48.644;9.456;2022-11-15T01:39:29;9.50;99.90
18384;DHT22;9318;48.644;9.456;2022-11-15T01:41:56;9.30;99.90
18384;DHT22;9318;48.644;9.456;2022-11-15T01:44:47;9.40;99.90
18384;DHT22;9318;48.644;9.456;2022-11-15T01:47:17;9.30;99.90
18384;DHT22;9318;48.644;9.456;2022-11-15T01:49:54;9.20;99.90
18384;DHT22;9318;48.644;9.456;2022-11-15T01:52:25;9.20;99.90
18384;DHT22;9318;48.644;9.456;2022-11-15T01:54:56;9.30;99.90
18384;DHT22;9318;48.644;9.456;2022-11-15T01:57:27;9.10;99.90
18384;DHT22;9318;48.644;9.456;2022-11-15T01:59:57;9.20;99.90
18384;DHT22;9318;48.644;9.456;2022-11-15T02:02:25;9.20;99.90
18384;DHT22;9318;48.644;9.456;2022-11-15T02:04:53;9.30;99.90
18384;DHT22;9318;48.644;9.456;2022-11-15T02:07:22;9.20;99.90
18384;DHT22;9318;48.644;9.456;2022-11-15T02:09:49;9.20;99.90
18384;DHT22;9318;48.644;9.456;2022-11-15T02:12:19;9.20;99.90
18384;DHT22;9318;48.644;9.456;2022-11-15T02:14:50;9.10;99.90
18384;DHT22;9318;48.644;9.456;2022-11-15T02:17:32;9.00;99.90
18384;DHT22;9318;48.644;9.456;2022-11-15T02:20:35;9.00;99.90
18384;DHT22;9318;48.644;9.456;2022-11-15T02:26:19;9.00;99.90
18384;DHT22;9318;48.644;9.456;2022-11-15T02:28:59;9.00;99.90
18384;DHT22;9318;48.644;9.456;2022-11-15T02:31:33;8.80;99.90
18384;DHT22;9318;48.644;9.456;2022-11-15T02:34:08;8.40;99.90
18384;DHT22;9318;48.644;9.456;2022-11-15T02:36:43;8.60;99.90
18384;DHT22;9318;48.644;9.456;2022-11-15T02:39:18;8.80;99.90
18384;DHT22;9318;48.644;9.456;2022-11-15T02:41:54;8.80;99.90
18384;DHT22;9318;48.644;9.456;2022-11-15T02:44:25;8.80;99.90
18384;DHT22;9318;48.644;9.456;2022-11-15T02:46:57;8.80;99.90
18384;DHT22;9318;48.644;9.456;2022-11-15T02:49:43;8.80;99.90
18384;DHT22;9318;48.644;9.456;2022-11-15T02:52:15;8.60;99.90
18384;DHT22;9318;48.644;9.456;2022-11-15T02:54:43;8.70;99.90
18384;DHT22;9318;48.644;9.456;2022-11-15T02:57:26;8.70;99.90
18384;DHT22;9318;48.644;9.456;2022-11-15T03:00:07;8.80;99.90
18384;DHT22;9318;48.644;9.456;2022-11-15T03:02:42;8.80;99.90
18384;DHT22;9318;48.644;9.456;2022-11-15T03:05:17;8.80;99.90
18384;DHT22;9318;48.644;9.456;2022-11-15T03:07:52;8.90;99.90
18384;DHT22;9318;48.644;9.456;2022-11-15T03:10:26;9.00;99.90
18384;DHT22;9318;48.644;9.456;2022-11-15T03:12:59;9.10;99.90
18384;DHT22;9318;48.644;9.456;2022-11-15T03:15:31;9.10;99.90
18384;DHT22;9318;48.644;9.456;2022-11-15T03:18:02;9.10;99.90
18384;DHT22;9318;48.644;9.456;2022-11-15T03:20:31;9.10;99.90
18384;DHT22;9318;48.644;9.456;2022-11-15T03:23:04;9.10;99.90
18384;DHT22;9318;48.644;9.456;2022-11-15T03:25:34;9.00;99.90
18384;DHT22;9318;48.644;9.456;2022-11-15T03:28:03;8.90;99.90
18384;DHT22;9318;48.644;9.456;2022-11-15T03:33:57;8.90;99.90
18384;DHT22;9318;48.644;9.456;2022-11-15T03:36:27;8.80;99.90
18384;DHT22;9318;48.644;9.456;2022-11-15T03:38:58;8.80;99.90
18384;DHT22;9318;48.644;9.456;2022-11-15T03:41:30;8.70;99.90
18384;DHT22;9318;48.644;9.456;2022-11-15T03:44:04;8.70;99.90
18384;DHT22;9318;48.644;9.456;2022-11-15T03:46:33;8.80;99.90
18384;DHT22;9318;48.644;9.456;2022-11-15T03:49:09;8.70;99.90
18384;DHT22;9318;48.644;9.456;2022-11-15T03:51:37;8.70;99.90
18384;DHT22;9318;48.644;9.456;2022-11-15T03:54:05;8.70;99.90
18384;DHT22;9318;48.644;9.456;2022-11-15T03:56:32;8.60;99.90
18384;DHT22;9318;48.644;9.456;2022-11-15T03:58:59;8.60;99.90
18384;DHT22;9318;48.644;9.456;2022-11-15T04:01:26;8.60;99.90
18384;DHT22;9318;48.644;9.456;2022-11-15T04:03:53;8.70;99.90
18384;DHT22;9318;48.644;9.456;2022-11-15T04:06:21;8.60;99.90
18384;DHT22;9318;48.644;9.456;2022-11-15T04:08:48;8.70;99.90
18384;DHT22;9318;48.644;9.456;2022-11-15T04:11:15;8.70;99.90
18384;DHT22;9318;48.644;9.456;2022-11-15T04:13:42;8.70;99.90
18384;DHT22;9318;48.644;9.456;2022-11-15T04:16:10;8.70;99.90
18384;DHT22;9318;48.644;9.456;2022-11-15T04:18:37;8.80;99.90
18384;DHT22;9318;48.644;9.456;2022-11-15T04:21:04;8.70;99.90
18384;DHT22;9318;48.644;9.456;2022-11-15T04:23:50;8.70;99.90
18384;DHT22;9318;48.644;9.456;2022-11-15T04:26:34;8.70;99.90
18384;DHT22;9318;48.644;9.456;2022-11-15T04:29:02;8.70;99.90
18384;DHT22;9318;48.644;9.456;2022-11-15T04:31:46;8.60;99.90
18384;DHT22;9318;48.644;9.456;2022-11-15T04:34:13;8.40;99.90
18384;DHT22;9318;48.644;9.456;2022-11-15T04:36:40;8.40;99.90
18384;DHT22;9318;48.644;9.456;2022-11-15T04:39:25;8.40;99.90
18384;DHT22;9318;48.644;9.456;2022-11-15T04:41:53;8.50;99.90
18384;DHT22;9318;48.644;9.456;2022-11-15T04:44:20;8.60;99.90
18384;DHT22;9318;48.644;9.456;2022-11-15T04:46:47;8.60;99.90
18384;DHT22;9318;48.644;9.456;2022-11-15T04:49:15;8.60;99.90
18384;DHT22;9318;48.644;9.456;2022-11-15T04:51:43;8.60;99.90
18384;DHT22;9318;48.644;9.456;2022-11-15T04:54:11;8.40;99.90
18384;DHT22;9318;48.644;9.456;2022-11-15T04:56:39;8.30;99.90
18384;DHT22;9318;48.644;9.456;2022-11-15T04:59:06;8.30;99.90
18384;DHT22;9318;48.644;9.456;2022-11-15T05:01:33;8.30;99.90
18384;DHT22;9318;48.644;9.456;2022-11-15T05:04:00;8.40;99.90
18384;DHT22;9318;48.644;9.456;2022-11-15T05:06:47;8.40;99.90
18384;DHT22;9318;48.644;9.456;2022-11-15T05:09:14;8.50;99.90
18384;DHT22;9318;48.644;9.456;2022-11-15T05:11:43;8.40;99.90
18384;DHT22;9318;48.644;9.456;2022-11-15T05:14:10;8.20;99.90
18384;DHT22;9318;48.644;9.456;2022-11-15T05:16:37;8.20;99.90
18384;DHT22;9318;48.644;9.456;2022-11-15T05:19:05;8.30;99.90
18384;DHT22;9318;48.644;9.456;2022-11-15T05:21:33;8.30;99.90
18384;DHT22;9318;48.644;9.456;2022-11-15T05:24:01;8.40;99.90
18384;DHT22;9318;48.644;9.456;2022-11-15T05:26:28;8.40;99.90
18384;DHT22;9318;48.644;9.456;2022-11-15T05:28:58;8.50;99.90
18384;DHT22;9318;48.644;9.456;2022-11-15T05:31:26;8.60;99.90
18384;DHT22;9318;48.644;9.456;2022-11-15T05:33:54;8.60;99.90
18384;DHT22;9318;48.644;9.456;2022-11-15T05:36:27;8.50;99.90
18384;DHT22;9318;48.644;9.456;2022-11-15T05:38:56;8.50;99.90
18384;DHT22;9318;48.644;9.456;2022-11-15T05:41:29;8.50;99.90
18384;DHT22;9318;48.644;9.456;2022-11-15T05:44:00;8.40;99.90
18384;DHT22;9318;48.644;9.456;2022-11-15T05:46:28;8.30;99.90
18384;DHT22;9318;48.644;9.456;2022-11-15T05:48:56;8.40;99.90
18384;DHT22;9318;48.644;9.456;2022-11-15T05:51:24;8.20;99.90
18384;DHT22;9318;48.644;9.456;2022-11-15T05:53:55;8.10;99.90
18384;DHT22;9318;48.644;9.456;2022-11-15T05:56:23;8.10;99.90
18384;DHT22;9318;48.644;9.456;2022-11-15T05:58:52;8.20;99.90
18384;DHT22;9318;48.644;9.456;2022-11-15T06:01:21;8.20;99.90
18384;DHT22;9318;48.644;9.456;2022-11-15T06:03:49;8.20;99.90
18384;DHT22;9318;48.644;9.456;2022-11-15T06:06:16;8.20;99.90
18384;DHT22;9318;48.644;9.456;2022-11-15T06:08:43;8.20;99.90
18384;DHT22;9318;48.644;9.456;2022-11-15T06:11:11;8.30;99.90
18384;DHT22;9318;48.644;9.456;2022-11-15T06:13:38;8.00;99.90
18384;DHT22;9318;48.644;9.456;2022-11-15T06:16:06;7.90;99.90
18384;DHT22;9318;48.644;9.456;2022-11-15T06:18:35;8.00;99.90
18384;DHT22;9318;48.644;9.456;2022-11-15T06:21:03;8.00;99.90
18384;DHT22;9318;48.644;9.456;2022-11-15T06:23:32;8.00;99.90
18384;DHT22;9318;48.644;9.456;2022-11-15T06:26:00;8.00;99.90
18384;DHT22;9318;48.644;9.456;2022-11-15T06:28:28;8.00;99.90
18384;DHT22;9318;48.644;9.456;2022-11-15T06:30:56;8.10;99.90
18384;DHT22;9318;48.644;9.456;2022-11-15T06:33:23;8.10;99.90
18384;DHT22;9318;48.644;9.456;2022-11-15T06:35:52;8.10;99.90
18384;DHT22;9318;48.644;9.456;2022-11-15T06:38:19;8.10;99.90
18384;DHT22;9318;48.644;9.456;2022-11-15T06:40:46;7.80;99.90
18384;DHT22;9318;48.644;9.456;2022-11-15T06:43:14;7.80;99.90
18384;DHT22;9318;48.644;9.456;2022-11-15T06:45:41;7.90;99.90
18384;DHT22;9318;48.644;9.456;2022-11-15T06:48:08;7.80;99.90
18384;DHT22;9318;48.644;9.456;2022-11-15T06:50:35;7.90;99.90
18384;DHT22;9318;48.644;9.456;2022-11-15T06:53:04;7.90;99.90
18384;DHT22;9318;48.644;9.456;2022-11-15T06:55:31;8.00;99.90
18384;DHT22;9318;48.644;9.456;2022-11-15T06:57:58;8.00;99.90
18384;DHT22;9318;48.644;9.456;2022-11-15T07:00:25;8.00;99.90
18384;DHT22;9318;48.644;9.456;2022-11-15T07:02:53;8.10;99.90
18384;DHT22;9318;48.644;9.456;2022-11-15T07:05:20;8.20;99.90
18384;DHT22;9318;48.644;9.456;2022-11-15T07:07:51;8.30;99.90
18384;DHT22;9318;48.644;9.456;2022-11-15T07:10:22;8.30;99.90
18384;DHT22;9318;48.644;9.456;2022-11-15T07:12:50;8.20;99.90
18384;DHT22;9318;48.644;9.456;2022-11-15T07:15:18;8.30;99.90
18384;DHT22;9318;48.644;9.456;2022-11-15T07:17:46;8.40;99.90
18384;DHT22;9318;48.644;9.456;2022-11-15T07:20:13;8.40;99.90
18384;DHT22;9318;48.644;9.456;2022-11-15T07:22:40;8.50;99.90
18384;DHT22;9318;48.644;9.456;2022-11-15T07:25:08;8.60;99.90
18384;DHT22;9318;48.644;9.456;2022-11-15T07:27:37;8.70;99.90
18384;DHT22;9318;48.644;9.456;2022-11-15T07:30:06;8.70;99.90
18384;DHT22;9318;48.644;9.456;2022-11-15T07:32:35;8.70;99.90
18384;DHT22;9318;48.644;9.456;2022-11-15T07:35:02;8.80;99.90
18384;DHT22;9318;48.644;9.456;2022-11-15T07:37:30;8.90;99.90
18384;DHT22;9318;48.644;9.456;2022-11-15T07:39:57;8.90;99.90
18384;DHT22;9318;48.644;9.456;2022-11-15T07:42:24;9.00;99.90
18384;DHT22;9318;48.644;9.456;2022-11-15T07:45:10;8.90;99.90
18384;DHT22;9318;48.644;9.456;2022-11-15T07:47:37;8.80;99.90
18384;DHT22;9318;48.644;9.456;2022-11-15T07:50:05;8.80;99.90
18384;DHT22;9318;48.644;9.456;2022-11-15T07:52:32;8.80;99.90
18384;DHT22;9318;48.644;9.456;2022-11-15T07:54:59;8.80;99.90
18384;DHT22;9318;48.644;9.456;2022-11-15T07:57:26;8.90;99.90
18384;DHT22;9318;48.644;9.456;2022-11-15T07:59:53;9.00;99.90
18384;DHT22;9318;48.644;9.456;2022-11-15T08:02:22;9.10;99.90
18384;DHT22;9318;48.644;9.456;2022-11-15T08:04:49;9.20;99.90
18384;DHT22;9318;48.644;9.456;2022-11-15T08:07:17;9.40;99.90
18384;DHT22;9318;48.644;9.456;2022-11-15T08:09:44;9.60;99.90
18384;DHT22;9318;48.644;9.456;2022-11-15T08:12:11;9.80;99.90
18384;DHT22;9318;48.644;9.456;2022-11-15T08:14:38;10.00;99.90
18384;DHT22;9318;48.644;9.456;2022-11-15T08:17:05;10.10;99.90
18384;DHT22;9318;48.644;9.456;2022-11-15T08:19:34;10.20;99.90
18384;DHT22;9318;48.644;9.456;2022-11-15T08:22:01;10.30;99.90
18384;DHT22;9318;48.644;9.456;2022-11-15T08:24:29;10.40;99.90
18384;DHT22;9318;48.644;9.456;2022-11-15T08:26:56;10.50;99.90
18384;DHT22;9318;48.644;9.456;2022-11-15T08:29:23;10.50;99.90
18384;DHT22;9318;48.644;9.456;2022-11-15T08:31:50;10.50;99.90
18384;DHT22;9318;48.644;9.456;2022-11-15T08:34:17;10.40;99.90
18384;DHT22;9318;48.644;9.456;2022-11-15T08:36:46;10.40;99.90
18384;DHT22;9318;48.644;9.456;2022-11-15T08:39:13;10.30;99.90
18384;DHT22;9318;48.644;9.456;2022-11-15T08:41:40;10.40;99.90
18384;DHT22;9318;48.644;9.456;2022-11-15T08:44:08;10.40;99.90
18384;DHT22;9318;48.644;9.456;2022-11-15T08:46:35;10.50;99.90
18384;DHT22;9318;48.644;9.456;2022-11-15T08:49:02;10.50;99.90
18384;DHT22;9318;48.644;9.456;2022-11-15T08:51:29;10.60;99.90
18384;DHT22;9318;48.644;9.456;2022-11-15T08:53:58;10.60;99.90
18384;DHT22;9318;48.644;9.456;2022-11-15T08:56:25;10.70;99.90
18384;DHT22;9318;48.644;9.456;2022-11-15T08:58:53;10.70;99.90
18384;DHT22;9318;48.644;9.456;2022-11-15T09:01:21;10.60;99.90
18384;DHT22;9318;48.644;9.456;2022-11-15T09:03:48;10.60;99.90
18384;DHT22;9318;48.644;9.456;2022-11-15T09:06:15;10.60;99.90
18384;DHT22;9318;48.644;9.456;2022-11-15T09:08:43;10.50;99.90
18384;DHT22;9318;48.644;9.456;2022-11-15T09:11:11;10.50;99.90
18384;DHT22;9318;48.644;9.456;2022-11-15T09:13:40;10.50;99.90
18384;DHT22;9318;48.644;9.456;2022-11-15T09:16:07;10.70;99.90
18384;DHT22;9318;48.644;9.456;2022-11-15T09:18:35;10.90;99.90
18384;DHT22;9318;48.644;9.456;2022-11-15T09:21:02;11.10;99.90
18384;DHT22;9318;48.644;9.456;2022-11-15T09:23:30;11.20;99.90
18384;DHT22;9318;48.644;9.456;2022-11-15T09:26:01;11.30;99.90
18384;DHT22;9318;48.644;9.456;2022-11-15T09:28:31;11.40;99.90
18384;DHT22;9318;48.644;9.456;2022-11-15T09:31:01;11.30;99.90
18384;DHT22;9318;48.644;9.456;2022-11-15T09:33:29;11.40;99.90
18384;DHT22;9318;48.644;9.456;2022-11-15T09:36:00;11.50;99.90
18384;DHT22;9318;48.644;9.456;2022-11-15T09:38:28;11.60;99.90
18384;DHT22;9318;48.644;9.456;2022-11-15T09:41:12;11.70;99.90
18384;DHT22;9318;48.644;9.456;2022-11-15T09:43:50;11.80;99.90
18384;DHT22;9318;48.644;9.456;2022-11-15T09:46:30;11.90;99.90
18384;DHT22;9318;48.644;9.456;2022-11-15T09:49:00;12.00;99.90
18384;DHT22;9318;48.644;9.456;2022-11-15T09:51:30;12.00;99.90
18384;DHT22;9318;48.644;9.456;2022-11-15T09:54:07;12.10;99.90
18384;DHT22;9318;48.644;9.456;2022-11-15T09:56:39;12.10;99.90
18384;DHT22;9318;48.644;9.456;2022-11-15T09:59:19;12.20;99.90
18384;DHT22;9318;48.644;9.456;2022-11-15T10:01:56;12.20;99.90
18384;DHT22;9318;48.644;9.456;2022-11-15T10:04:26;12.30;99.90
18384;DHT22;9318;48.644;9.456;2022-11-15T10:06:58;12.40;99.90
18384;DHT22;9318;48.644;9.456;2022-11-15T10:09:31;12.70;99.90
18384;DHT22;9318;48.644;9.456;2022-11-15T10:12:01;12.90;99.90
18384;DHT22;9318;48.644;9.456;2022-11-15T10:14:30;13.00;99.90
18384;DHT22;9318;48.644;9.456;2022-11-15T10:17:18;13.10;99.90
18384;DHT22;9318;48.644;9.456;2022-11-15T10:19:56;13.20;99.90
18384;DHT22;9318;48.644;9.456;2022-11-15T10:22:29;13.30;99.90
18384;DHT22;9318;48.644;9.456;2022-11-15T10:25:17;13.40;99.90
18384;DHT22;9318;48.644;9.456;2022-11-15T10:27:56;13.50;99.90
18384;DHT22;9318;48.644;9.456;2022-11-15T10:30:31;13.70;99.90
18384;DHT22;9318;48.644;9.456;2022-11-15T10:33:18;14.20;99.90
18384;DHT22;9318;48.644;9.456;2022-11-15T10:35:47;15.20;99.90
18384;DHT22;9318;48.644;9.456;2022-11-15T10:38:15;16.60;99.90
18384;DHT22;9318;48.644;9.456;2022-11-15T10:40:42;17.90;99.90
18384;DHT22;9318;48.644;9.456;2022-11-15T10:43:16;17.90;99.90
18384;DHT22;9318;48.644;9.456;2022-11-15T10:45:46;17.50;99.90
18384;DHT22;9318;48.644;9.456;2022-11-15T10:48:23;17.10;99.90
18384;DHT22;9318;48.644;9.456;2022-11-15T10:50:52;16.90;99.90
18384;DHT22;9318;48.644;9.456;2022-11-15T10:53:31;16.60;99.90
18384;DHT22;9318;48.644;9.456;2022-11-15T10:56:02;16.30;99.90
18384;DHT22;9318;48.644;9.456;2022-11-15T10:58:36;16.20;99.90
18384;DHT22;9318;48.644;9.456;2022-11-15T11:01:16;16.10;99.90
18384;DHT22;9318;48.644;9.456;2022-11-15T11:03:45;16.10;99.90
18384;DHT22;9318;48.644;9.456;2022-11-15T11:06:24;15.90;99.90
18384;DHT22;9318;48.644;9.456;2022-11-15T11:08:56;16.00;99.90
18384;DHT22;9318;48.644;9.456;2022-11-15T11:11:23;16.00;99.90
18384;DHT22;9318;48.644;9.456;2022-11-15T11:13:51;16.00;99.90
18384;DHT22;9318;48.644;9.456;2022-11-15T11:16:44;16.00;99.90
18384;DHT22;9318;48.644;9.456;2022-11-15T11:22:05;15.80;99.90
18384;DHT22;9318;48.644;9.456;2022-11-15T11:24:42;15.60;99.90
18384;DHT22;9318;48.644;9.456;2022-11-15T11:27:22;15.40;99.90
18384;DHT22;9318;48.644;9.456;2022-11-15T11:30:09;15.20;99.90
18384;DHT22;9318;48.644;9.456;2022-11-15T11:33:00;15.00;99.90
18384;DHT22;9318;48.644;9.456;2022-11-15T11:35:32;14.80;99.90
18384;DHT22;9318;48.644;9.456;2022-11-15T11:38:12;14.60;99.90
18384;DHT22;9318;48.644;9.456;2022-11-15T11:40:49;14.40;99.90
18384;DHT22;9318;48.644;9.456;2022-11-15T11:43:23;14.40;99.90
18384;DHT22;9318;48.644;9.456;2022-11-15T11:46:07;14.30;99.90
18384;DHT22;9318;48.644;9.456;2022-11-15T11:48:43;14.20;99.90
18384;DHT22;9318;48.644;9.456;2022-11-15T11:51:16;14.20;99.90
18384;DHT22;9318;48.644;9.456;2022-11-15T11:53:50;14.10;99.90
18384;DHT22;9318;48.644;9.456;2022-11-15T11:56:25;14.10;99.90
18384;DHT22;9318;48.644;9.456;2022-11-15T11:58:55;14.10;99.90
18384;DHT22;9318;48.644;9.456;2022-11-15T12:01:26;14.10;99.90
18384;DHT22;9318;48.644;9.456;2022-11-15T12:04:03;14.20;99.90
18384;DHT22;9318;48.644;9.456;2022-11-15T12:06:34;14.30;99.90
18384;DHT22;9318;48.644;9.456;2022-11-15T12:09:11;14.30;99.90
18384;DHT22;9318;48.644;9.456;2022-11-15T12:11:47;14.30;99.90
18384;DHT22;9318;48.644;9.456;2022-11-15T12:14:29;14.20;99.90
18384;DHT22;9318;48.644;9.456;2022-11-15T12:16:59;14.20;99.90
18384;DHT22;9318;48.644;9.456;2022-11-15T12:19:29;14.10;99.90
18384;DHT22;9318;48.644;9.456;2022-11-15T12:22:01;14.20;99.90
18384;DHT22;9318;48.644;9.456;2022-11-15T12:24:33;14.20;99.90
18384;DHT22;9318;48.644;9.456;2022-11-15T12:27:05;14.30;99.90
18384;DHT22;9318;48.644;9.456;2022-11-15T12:29:36;14.30;99.90
18384;DHT22;9318;48.644;9.456;2022-11-15T12:32:05;14.30;99.90
18384;DHT22;9318;48.644;9.456;2022-11-15T12:34:45;14.30;99.90
18384;DHT22;9318;48.644;9.456;2022-11-15T12:40:23;14.20;99.90
18384;DHT22;9318;48.644;9.456;2022-11-15T12:45:47;14.00;99.90
18384;DHT22;9318;48.644;9.456;2022-11-15T12:48:46;13.90;99.90
18384;DHT22;9318;48.644;9.456;2022-11-15T12:51:15;13.80;99.90
18384;DHT22;9318;48.644;9.456;2022-11-15T12:53:43;13.80;99.90
18384;DHT22;9318;48.644;9.456;2022-11-15T12:56:21;13.80;99.90
18384;DHT22;9318;48.644;9.456;2022-11-15T12:58:52;13.70;99.90
18384;DHT22;9318;48.644;9.456;2022-11-15T13:01:57;13.70;99.90
18384;DHT22;9318;48.644;9.456;2022-11-15T13:04:27;13.70;99.90
18384;DHT22;9318;48.644;9.456;2022-11-15T13:06:57;13.60;99.90
18384;DHT22;9318;48.644;9.456;2022-11-15T13:09:53;13.60;99.90
18384;DHT22;9318;48.644;9.456;2022-11-15T13:12:52;13.60;99.90
18384;DHT22;9318;48.644;9.456;2022-11-15T13:15:51;13.70;99.90
18384;DHT22;9318;48.644;9.456;2022-11-15T13:18:32;13.70;99.90
18384;DHT22;9318;48.644;9.456;2022-11-15T13:21:00;13.80;99.90
18384;DHT22;9318;48.644;9.456;2022-11-15T13:23:53;13.80;99.90
18384;DHT22;9318;48.644;9.456;2022-11-15T13:26:21;13.90;99.90
18384;DHT22;9318;48.644;9.456;2022-11-15T13:28:51;14.00;99.90
18384;DHT22;9318;48.644;9.456;2022-11-15T13:31:36;14.10;99.90
18384;DHT22;9318;48.644;9.456;2022-11-15T13:34:26;14.20;99.90
18384;DHT22;9318;48.644;9.456;2022-11-15T13:36:54;14.20;99.90
18384;DHT22;9318;48.644;9.456;2022-11-15T13:39:29;14.30;99.90
18384;DHT22;9318;48.644;9.456;2022-11-15T13:41:57;14.30;99.90
18384;DHT22;9318;48.644;9.456;2022-11-15T13:44:25;14.30;99.90
18384;DHT22;9318;48.644;9.456;2022-11-15T13:47:12;14.20;99.90
18384;DHT22;9318;48.644;9.456;2022-11-15T13:49:40;14.20;99.90
18384;DHT22;9318;48.644;9.456;2022-11-15T13:52:11;14.20;99.90
18384;DHT22;9318;48.644;9.456;2022-11-15T13:54:44;14.20;99.90
18384;DHT22;9318;48.644;9.456;2022-11-15T13:57:14;14.10;99.90
18384;DHT22;9318;48.644;9.456;2022-11-15T13:59:47;14.10;99.90
18384;DHT22;9318;48.644;9.456;2022-11-15T14:02:17;14.10;99.90
18384;DHT22;9318;48.644;9.456;2022-11-15T14:04:49;14.10;99.90
18384;DHT22;9318;48.644;9.456;2022-11-15T14:07:18;14.10;99.90
18384;DHT22;9318;48.644;9.456;2022-11-15T14:09:47;14.00;99.90
18384;DHT22;9318;48.644;9.456;2022-11-15T14:12:30;14.00;99.90
18384;DHT22;9318;48.644;9.456;2022-11-15T14:14:59;14.00;99.90
18384;DHT22;9318;48.644;9.456;2022-11-15T14:17:35;13.90;99.90
18384;DHT22;9318;48.644;9.456;2022-11-15T14:20:20;13.80;99.90
18384;DHT22;9318;48.644;9.456;2022-11-15T14:22:54;13.80;99.90
18384;DHT22;9318;48.644;9.456;2022-11-15T14:25:24;13.70;99.90
18384;DHT22;9318;48.644;9.456;2022-11-15T14:28:16;13.70;99.90
18384;DHT22;9318;48.644;9.456;2022-11-15T14:30:56;13.60;99.90
18384;DHT22;9318;48.644;9.456;2022-11-15T14:33:28;13.60;99.90
18384;DHT22;9318;48.644;9.456;2022-11-15T14:35:57;13.50;99.90
18384;DHT22;9318;48.644;9.456;2022-11-15T14:38:25;13.40;99.90
18384;DHT22;9318;48.644;9.456;2022-11-15T14:40:54;13.40;99.90
18384;DHT22;9318;48.644;9.456;2022-11-15T14:43:22;13.40;99.90
18384;DHT22;9318;48.644;9.456;2022-11-15T14:45:49;13.30;99.90
18384;DHT22;9318;48.644;9.456;2022-11-15T14:48:17;13.30;99.90
18384;DHT22;9318;48.644;9.456;2022-11-15T14:50:44;13.20;99.90
18384;DHT22;9318;48.644;9.456;2022-11-15T14:53:13;13.20;99.90
18384;DHT22;9318;48.644;9.456;2022-11-15T14:55:41;13.20;99.90
18384;DHT22;9318;48.644;9.456;2022-11-15T14:58:11;13.20;99.90
18384;DHT22;9318;48.644;9.456;2022-11-15T15:00:39;13.10;99.90
18384;DHT22;9318;48.644;9.456;2022-11-15T15:03:07;13.10;99.90
18384;DHT22;9318;48.644;9.456;2022-11-15T15:05:36;13.10;99.90
18384;DHT22;9318;48.644;9.456;2022-11-15T15:08:05;13.10;99.90
18384;DHT22;9318;48.644;9.456;2022-11-15T15:10:35;13.10;99.90
18384;DHT22;9318;48.644;9.456;2022-11-15T15:13:03;13.10;99.90
18384;DHT22;9318;48.644;9.456;2022-11-15T15:15:34;13.10;99.90
18384;DHT22;9318;48.644;9.456;2022-11-15T15:18:03;13.00;99.90
18384;DHT22;9318;48.644;9.456;2022-11-15T15:20:31;13.00;99.90
18384;DHT22;9318;48.644;9.456;2022-11-15T15:22:59;12.90;99.90
18384;DHT22;9318;48.644;9.456;2022-11-15T15:25:28;12.90;99.90
18384;DHT22;9318;48.644;9.456;2022-11-15T15:27:56;12.90;99.90
18384;DHT22;9318;48.644;9.456;2022-11-15T15:30:24;12.90;99.90
18384;DHT22;9318;48.644;9.456;2022-11-15T15:32:53;12.90;99.90
18384;DHT22;9318;48.644;9.456;2022-11-15T15:35:21;12.80;99.90
18384;DHT22;9318;48.644;9.456;2022-11-15T15:37:49;12.80;99.90
18384;DHT22;9318;48.644;9.456;2022-11-15T15:40:18;12.80;99.90
18384;DHT22;9318;48.644;9.456;2022-11-15T15:42:47;12.70;99.90
18384;DHT22;9318;48.644;9.456;2022-11-15T15:45:15;12.70;99.90
18384;DHT22;9318;48.644;9.456;2022-11-15T15:47:43;12.70;99.90
18384;DHT22;9318;48.644;9.456;2022-11-15T15:50:23;12.70;99.90
18384;DHT22;9318;48.644;9.456;2022-11-15T15:52:51;12.70;99.90
18384;DHT22;9318;48.644;9.456;2022-11-15T15:55:18;12.60;99.90
18384;DHT22;9318;48.644;9.456;2022-11-15T15:57:45;12.60;99.90
18384;DHT22;9318;48.644;9.456;2022-11-15T16:00:13;12.60;99.90
18384;DHT22;9318;48.644;9.456;2022-11-15T16:02:41;12.50;99.90
18384;DHT22;9318;48.644;9.456;2022-11-15T16:05:10;12.50;99.90
18384;DHT22;9318;48.644;9.456;2022-11-15T16:07:39;12.40;99.90
18384;DHT22;9318;48.644;9.456;2022-11-15T16:10:22;12.40;99.90
18384;DHT22;9318;48.644;9.456;2022-11-15T16:12:51;12.40;99.90
18384;DHT22;9318;48.644;9.456;2022-11-15T16:15:19;12.40;99.90
18384;DHT22;9318;48.644;9.456;2022-11-15T16:17:49;12.40;99.90
18384;DHT22;9318;48.644;9.456;2022-11-15T16:20:32;12.30;99.90
18384;DHT22;9318;48.644;9.456;2022-11-15T16:23:02;12.30;99.90
18384;DHT22;9318;48.644;9.456;2022-11-15T16:25:31;12.30;99.90
18384;DHT22;9318;48.644;9.456;2022-11-15T16:28:00;12.40;99.90
18384;DHT22;9318;48.644;9.456;2022-11-15T16:30:27;12.40;99.90
18384;DHT22;9318;48.644;9.456;2022-11-15T16:32:55;12.40;99.90